• Join FlightAware (Why Join?)
  • Login
  • US Flag 
07:01PM EDT


 

Airport Tracker/Info


-or-


 

Live Flight TrackerFlight Track Log ✈ SWA1802 ✈ 26-Jul-2013 ✈ KMDW - KLAX

Flight Track Log - Related Links

Times and Time Zones

All times are in EDT time to prevent confusion due to time zone crossing. See the SWA1802 flight status page for this flight to view local times or setup timezone preferences in your user account.

Time Position Orientation Groundspeed Altitude Reporting Facility
EDT Latitude Longitude Course Direction KTS MPH feet Rate Location/Type
06:31PM 41.7660 -87.7750 219° Southwest 158 182 2,100  Level FlightAware
06:31PM 41.7520 -87.7900 219° Southwest 173 199 2,900 1,560 Climbing FlightAware
06:32PM 41.7280 -87.8140 217° Southwest 223 257 3,600 1,620 Climbing FlightAware
06:32PM 41.7180 -87.8260 222° Southwest 228 262 4,100 2,640 Climbing FlightAware
06:32PM 41.7100 -87.8470 243° Southwest 233 268 4,900 2,700 Climbing FlightAware
06:33PM 41.6970 -87.8850 245° Southwest 253 291 6,100 2,400 Climbing FlightAware
06:33PM 41.6910 -87.9010 243° Southwest 263 303 6,500 3,120 Climbing FlightAware
06:33PM 41.6760 -87.9380 242° Southwest 265 305 8,100 3,480 Climbing FlightAware
06:33PM 41.6600 -87.9590 224° Southwest 271 312 9,000 3,180 Climbing FlightAware
06:34PM 41.6470 -87.9710 215° Southwest 272 313 9,700 3,180 Climbing FlightAware
06:34PM 41.6010 -88.0120 214° Southwest 277 319 12,000 2,280 Climbing FlightAware
06:35PM 41.5560 -88.0490 212° Southwest 286 329 13,000 660 Climbing FlightAware
06:36PM 41.5080 -88.0900 213° Southwest 287 330 13,000  Level FlightAware
06:37PM 41.4590 -88.1320 213° Southwest 289 333 13,000 240 Level FlightAware
06:37PM 41.4100 -88.1730 212° Southwest 334 384 13,400 1,020 Climbing FlightAware
06:38PM 41.3410 -88.2090 201° Southwest 377 434 14,500 1,860 Climbing FlightAware
06:39PM 41.2710 -88.2410 199° South 389 448 16,100 2,340 Climbing FlightAware
06:39PM 41.2010 -88.2720 198° South 394 453 17,700 2,280 Climbing FlightAware
06:40PM 41.1260 -88.3050 198° South 403 464 19,300 2,280 Climbing FlightAware
06:41PM 41.0540 -88.3380 199° South 407 468 20,900 2,160 Climbing FlightAware
06:41PM 40.9770 -88.3730 199° South 414 476 22,300 1,800 Climbing FlightAware
06:42PM 40.9130 -88.4020 199° South 421 484 23,300 1,680 Climbing FlightAware
06:43PM 40.8380 -88.4350 198° South 425 489 24,500 1,620 Climbing FlightAware
06:43PM 40.7530 -88.4730 199° South 429 494 25,700 1,320 Climbing FlightAware
06:44PM 40.6710 -88.5090 198° South 441 507 26,500 1,200 Climbing FlightAware
06:45PM 40.5980 -88.5420 199° South 447 514 27,300 1,440 Climbing FlightAware
06:46PM 40.5110 -88.5800 198° South 446 513 28,500 1,800 Climbing FlightAware
06:46PM 40.4320 -88.6150 199° South 436 502 29,900 1,920 Climbing FlightAware
06:47PM 40.3660 -88.6450 199° South 429 494 30,900 1,560 Climbing FlightAware
06:48PM 40.2940 -88.6960 208° Southwest 409 471 32,000 1,380 Climbing FlightAware
06:48PM 40.2390 -88.7660 224° Southwest 405 466 32,900 1,260 Climbing FlightAware
06:49PM 40.1900 -88.8280 224° Southwest 406 467 33,600 840 Climbing FlightAware
06:49PM 40.1410 -88.8910 225° Southwest 399 459 34,000 240 Climbing FlightAware
06:50PM 40.0820 -88.9670 225° Southwest 398 458 34,000  Level FlightAware
06:51PM 40.0300 -89.0330 224° Southwest 398 458 34,000  Level FlightAware
06:52PM 39.9660 -89.1140 224° Southwest 399 459 34,000  Level FlightAware
06:52PM 39.9160 -89.1800 225° Southwest 396 456 34,000  Level FlightAware
06:53PM 39.8760 -89.2590 237° Southwest 387 445 34,000  Level FlightAware
06:54PM 39.8370 -89.3450 239° Southwest 384 442 34,000  Level FlightAware
06:54PM 39.7990 -89.4270 239° Southwest 383 441 34,000  Level FlightAware
06:55PM 39.7620 -89.5060 239° Southwest 381 438 34,000  Level FlightAware
06:56PM 39.7200 -89.5970 239° Southwest 381 438 34,000  Level FlightAware
06:56PM 39.6830 -89.6760 239° Southwest 381 438 34,000  Level FlightAware
06:57PM 39.6510 -89.7450 239° Southwest 382 440 34,000  Level FlightAware
06:58PM 39.6080 -89.8370 239° Southwest 384 442 34,000  Level FlightAware
06:58PM 39.5740 -89.9110 239° Southwest 385 443 34,000  Level FlightAware
06:59PM 39.5320 -90.0010 239° Southwest 388 447 34,000  Level FlightAware
07:00PM 39.4970 -90.0740 238° Southwest 388 447 34,000  Level FlightAware
07:01PM 39.4580 -90.1590 239° Southwest 391 450 34,000  Level FlightAware
07:01PM 39.4140 -90.2510 238° Southwest 393 452 34,000  Level FlightAware
07:02PM 39.3740 -90.3360 239° Southwest 394 453 34,000  Level FlightAware
07:03PM 39.3400 -90.4070 238° Southwest 394 453 34,000  Level FlightAware
07:04PM 39.2840 -90.5240 238° Southwest 394 453 34,000  Level FlightAware
07:04PM 39.2410 -90.6140 238° Southwest 395 455 34,000  Level FlightAware
07:05PM 39.2030 -90.6930 238° Southwest 396 456 34,000  Level FlightAware
07:06PM 39.1720 -90.7880 247° West 397 457 34,000  Level FlightAware
07:06PM 39.1560 -90.8630 255° West 397 457 34,000  Level FlightAware
07:07PM 39.1240 -91.0040 254° West 398 458 34,000  Level FlightAware
07:08PM 39.1020 -91.0980 253° West 398 458 34,000  Level FlightAware
07:09PM 39.0800 -91.1970 254° West 400 460 34,000  Level FlightAware
07:09PM 39.0580 -91.2930 254° West 400 460 34,000  Level FlightAware
07:10PM 39.0400 -91.3680 253° West 401 461 34,000  Level FlightAware
07:11PM 39.0170 -91.4640 253° West 401 461 34,000  Level FlightAware
07:12PM 38.9850 -91.6070 254° West 401 461 34,000  Level FlightAware
07:12PM 38.9620 -91.7060 253° West 404 465 34,000  Level FlightAware
07:13PM 38.9390 -91.8020 253° West 405 466 34,000  Level FlightAware
07:14PM 38.9160 -91.9010 253° West 408 470 34,000  Level FlightAware
07:15PM 38.8880 -92.0210 253° West 411 473 34,000  Level FlightAware
07:15PM 38.8670 -92.1100 253° West 414 476 34,000  Level FlightAware
07:16PM 38.8430 -92.2100 253° West 415 478 34,000  Level FlightAware
07:17PM 38.8170 -92.3180 253° West 418 481 34,000  Level FlightAware
07:17PM 38.7930 -92.4170 253° West 420 483 34,000  Level FlightAware
07:18PM 38.7640 -92.5360 253° West 421 484 34,000  Level FlightAware
07:19PM 38.7400 -92.6350 253° West 422 486 34,000  Level FlightAware
07:20PM 38.7110 -92.7570 253° West 423 487 34,000  Level FlightAware
07:20PM 38.6880 -92.8480 252° West 423 487 34,000  Level FlightAware
07:21PM 38.6640 -92.9460 253° West 423 487 34,000  Level FlightAware
07:22PM 38.6390 -93.0500 253° West 421 484 34,000  Level FlightAware
07:23PM 38.6150 -93.1450 252° West 422 486 34,000  Level FlightAware
07:23PM 38.5930 -93.2350 253° West 422 486 34,000  Level FlightAware
07:24PM 38.5670 -93.3360 252° West 424 488 34,000  Level FlightAware
07:25PM 38.5390 -93.4500 253° West 425 489 34,000  Level FlightAware
07:25PM 38.5130 -93.5520 252° West 425 489 34,000  Level FlightAware
07:26PM 38.4930 -93.6320 252° West 427 491 34,000  Level FlightAware
07:27PM 38.4660 -93.7390 252° West 429 494 34,000  Level FlightAware
07:27PM 38.4420 -93.8320 252° West 430 495 34,000  Level FlightAware
07:28PM 38.4190 -93.9200 252° West 431 496 34,000  Level FlightAware
07:29PM 38.3940 -94.0170 252° West 430 495 34,000  Level FlightAware
07:29PM 38.3680 -94.1210 252° West 429 494 34,000  Level FlightAware
07:30PM 38.3430 -94.2160 251° West 429 494 34,000  Level FlightAware
07:31PM 38.3150 -94.3230 252° West 429 494 34,000  Level FlightAware
07:31PM 38.2890 -94.4230 252° West 429 494 34,000  Level FlightAware
07:32PM 38.2670 -94.5200 254° West 426 490 34,000  Level FlightAware
07:33PM 38.2520 -94.6140 259° West 426 490 34,000  Level FlightAware
07:33PM 38.2370 -94.7120 259° West 427 491 34,000  Level FlightAware
07:34PM 38.2200 -94.8170 258° West 429 494 34,000  Level FlightAware
07:35PM 38.2040 -94.9180 259° West 431 496 34,000  Level FlightAware
07:36PM 38.1870 -95.0250 259° West 430 495 34,000  Level FlightAware
07:36PM 38.1710 -95.1270 259° West 430 495 34,000  Level FlightAware
07:37PM 38.1520 -95.2360 258° West 430 495 34,000  Level FlightAware
07:38PM 38.1350 -95.3340 258° West 431 496 34,000  Level FlightAware
07:38PM 38.1190 -95.4290 258° West 430 495 34,000  Level FlightAware
07:39PM 38.1020 -95.5260 257° West 428 493 34,000  Level FlightAware
07:40PM 38.0800 -95.6550 258° West 427 491 34,000  Level FlightAware
07:40PM 38.0640 -95.7470 258° West 425 489 34,000  Level FlightAware
07:41PM 38.0490 -95.8340 258° West 425 489 34,000  Level FlightAware
07:42PM 38.0300 -95.9450 258° West 423 487 34,000  Level FlightAware
07:43PM 38.0120 -96.0530 258° West 423 487 34,000  Level FlightAware
07:43PM 37.9950 -96.1600 259° West 425 489 34,000  Level FlightAware
07:44PM 37.9790 -96.2570 258° West 426 490 34,000  Level FlightAware
07:45PM 37.9600 -96.3660 258° West 426 490 34,000  Level FlightAware
07:45PM 37.9480 -96.4420 259° West 425 489 34,000  Level FlightAware
07:46PM 37.9290 -96.5540 258° West 423 487 34,000  Level FlightAware
07:47PM 37.9130 -96.6500 258° West 421 484 34,000  Level FlightAware
07:47PM 37.8990 -96.7310 258° West 419 482 34,000  Level FlightAware
07:48PM 37.8810 -96.8370 258° West 417 480 34,000  Level FlightAware
07:49PM 37.8630 -96.9360 257° West 416 479 34,000  Level FlightAware
07:49PM 37.8460 -97.0320 257° West 415 478 34,000  Level FlightAware
07:50PM 37.8290 -97.1250 257° West 418 481 34,000  Level FlightAware
07:51PM 37.8100 -97.2320 257° West 420 483 34,000  Level FlightAware
07:51PM 37.7920 -97.3300 257° West 419 482 34,000  Level FlightAware
07:52PM 37.7730 -97.4320 257° West 419 482 34,000  Level FlightAware
07:53PM 37.7540 -97.5370 257° West 419 482 34,000  Level FlightAware
07:54PM 37.7360 -97.6350 257° West 420 483 34,000  Level FlightAware
07:54PM 37.7160 -97.7350 256° West 420 483 34,000  Level FlightAware
07:55PM 37.6980 -97.8290 256° West 418 481 34,000  Level FlightAware
07:56PM 37.6780 -97.9340 256° West 417 480 34,000  Level FlightAware
07:56PM 37.6600 -98.0260 256° West 416 479 34,000  Level FlightAware
07:57PM 37.6390 -98.1330 256° West 414 476 34,000  Level FlightAware
07:58PM 37.6220 -98.2200 256° West 412 474 34,000  Level FlightAware
07:58PM 37.6000 -98.3290 256° West 409 471 34,000  Level FlightAware
07:59PM 37.5790 -98.4370 256° West 411 473 34,000  Level FlightAware
08:00PM 37.5590 -98.5360 256° West 410 472 34,000  Level FlightAware
08:01PM 37.5350 -98.6560 256° West 409 471 34,000  Level FlightAware
08:01PM 37.5170 -98.7450 256° West 408 470 34,000  Level FlightAware
08:02PM 37.4980 -98.8370 255° West 408 470 34,000  Level FlightAware
08:03PM 37.4830 -98.9070 255° West 408 470 34,000  Level FlightAware
08:04PM 37.4630 -99.0010 255° West 408 470 34,000  Level FlightAware
08:04PM 37.4480 -99.0710 255° West 408 470 34,000  Level FlightAware
08:05PM 37.4230 -99.1920 255° West 408 470 34,000  Level FlightAware
08:06PM 37.4080 -99.2620 255° West 408 470 34,000  Level FlightAware
08:07PM 37.3880 -99.3560 255° West 408 470 34,000  Level FlightAware
08:07PM 37.3730 -99.4260 255° West 408 470 34,000  Level FlightAware
08:08PM 37.3530 -99.5200 255° West 408 470 34,000  Level FlightAware
08:09PM 37.3380 -99.5900 255° West 408 470 34,000  Level FlightAware
08:09PM 37.3180 -99.6850 255° West 408 470 34,000  Level FlightAware
08:10PM 37.3030 -99.7550 255° West 408 470 34,000  Level FlightAware
08:11PM 37.2720 -99.8980 255° West 408 470 34,000  Level FlightAware
08:12PM 37.2000 -100.2608 255° West 408 470 34,000  Level Albuquerque Center
08:13PM 37.1711 -100.3925 255° West 408 470 34,000  Level Albuquerque Center
08:15PM 37.1431 -100.5217 255° West 403 464 34,000  Level Albuquerque Center
08:16PM 37.1097 -100.6728 255° West 401 461 34,000  Level Albuquerque Center
08:17PM 37.0769 -100.8222 255° West 398 458 34,000  Level Kansas City Center
08:18PM 37.0483 -100.9525 255° West 401 461 34,000  Level Kansas City Center
08:19PM 37.0275 -101.1072 260° West 403 464 34,000  Level Kansas City Center
08:20PM 37.0108 -101.2394 261° West 402 463 34,000  Level Kansas City Center
08:21PM 36.9919 -101.3939 261° West 401 461 34,000  Level Kansas City Center
08:22PM 36.9736 -101.5261 260° West 401 461 34,000  Level Kansas City Center
08:23PM 36.9531 -101.6814 261° West 405 466 34,000  Level Kansas City Center
08:24PM 36.9361 -101.8172 261° West 409 471 34,000  Level Kansas City Center
08:25PM 36.9225 -101.9481 263° West 402 463 34,000  Level Kansas City Center
08:26PM 36.9133 -102.1028 266° West 398 458 34,000  Level Kansas City Center
08:27PM 36.9069 -102.2133 266° West 397 457 34,000  Level Albuquerque Center
08:28PM 36.8975 -102.3664 266° West 396 456 34,000  Level Albuquerque Center
08:29PM 36.8892 -102.4986 266° West 398 458 34,000  Level Albuquerque Center
08:30PM 36.8792 -102.6372 265° West 401 461 34,000  Level Albuquerque Center
08:31PM 36.8683 -102.7925 265° West 402 463 34,000  Level Albuquerque Center
08:32PM 36.8589 -102.9286 265° West 408 470 34,000  Level Albuquerque Center
08:33PM 36.8492 -103.0628 265° West 407 468 34,000  Level Albuquerque Center
08:34PM 36.8381 -103.2211 265° West 408 470 34,000  Level Albuquerque Center
08:35PM 36.8278 -103.3569 265° West 409 471 34,000  Level Albuquerque Center
08:36PM 36.8167 -103.5142 265° West 407 468 34,000 180 Level Albuquerque Center
08:38PM 36.7950 -103.7906 264° West 417 480 34,600 540 Climbing Albuquerque Center
08:39PM 36.7819 -103.9508 264° West 414 476 35,800 660 Climbing Albuquerque Center
08:40PM 36.7717 -104.0867 265° West 412 474 36,000 60 Climbing Albuquerque Center
08:41PM 36.7592 -104.2436 264° West 408 470 36,000  Level Albuquerque Center
08:42PM 36.7481 -104.3792 264° West 410 472 36,000  Level Albuquerque Center
08:43PM 36.7358 -104.5142 264° West 409 471 36,000  Level Albuquerque Center
08:44PM 36.7242 -104.6603 264° West 407 468 36,000  Level Albuquerque Center
08:45PM 36.7111 -104.8008 263° West 407 468 36,000  Level Albuquerque Center
08:46PM 36.6983 -104.9600 264° West 405 466 36,000  Level Albuquerque Center
08:47PM 36.6872 -105.0811 264° West 406 467 36,000  Level Albuquerque Center
08:53PM 36.6300 -105.8880 264° West 407 468 36,000  Level FlightAware
08:54PM 36.6360 -105.9920 274° West 408 470 36,000  Level FlightAware
08:54PM 36.6390 -106.0460 274° West 408 470 36,000  Level FlightAware
08:55PM 36.6470 -106.1630 275° West 405 466 36,000  Level FlightAware
08:56PM 36.6520 -106.2540 274° West 405 466 36,000  Level FlightAware
08:56PM 36.6560 -106.3250 274° West 405 466 36,000  Level FlightAware
08:57PM 36.6610 -106.4200 274° West 405 466 36,000  Level FlightAware
08:58PM 36.6650 -106.4910 274° West 405 466 36,000  Level FlightAware
08:58PM 36.6710 -106.5870 274° West 405 466 36,000  Level FlightAware
08:59PM 36.6870 -106.7280 278° West 410 472 36,000  Level FlightAware
09:00PM 36.6950 -106.8350 275° West 409 471 36,000  Level FlightAware
09:00PM 36.7030 -106.9270 276° West 411 473 36,000  Level FlightAware
09:01PM 36.7120 -107.0350 276° West 411 473 36,000  Level FlightAware
09:02PM 36.7200 -107.1280 276° West 413 475 36,000  Level FlightAware
09:03PM 36.7280 -107.2350 275° West 410 472 36,000  Level FlightAware
09:03PM 36.7340 -107.3190 275° West 409 471 36,000  Level FlightAware
09:03PM 36.7280 -107.3650 261° West 414 476 36,000  Level FlightAware
09:04PM 36.7100 -107.4370 253° West 415 478 36,000  Level FlightAware
09:05PM 36.6900 -107.5510 258° West 415 478 36,000  Level FlightAware
09:06PM 36.6720 -107.6740 260° West 416 479 36,000  Level FlightAware
09:06PM 36.6560 -107.7770 259° West 419 482 36,000  Level FlightAware
09:07PM 36.6420 -107.8720 260° West 420 483 36,000  Level FlightAware
09:08PM 36.6250 -107.9770 259° West 421 484 36,000  Level FlightAware
09:08PM 36.6150 -108.0440 259° West 422 486 36,000  Level FlightAware
09:09PM 36.5950 -108.1740 259° West 420 483 36,000  Level FlightAware
09:10PM 36.5820 -108.2570 259° West 420 483 36,000  Level FlightAware
09:10PM 36.5680 -108.3470 259° West 423 487 36,000  Level FlightAware
09:11PM 36.5510 -108.4550 259° West 422 486 36,000  Level FlightAware
09:12PM 36.5360 -108.5500 259° West 420 483 36,000  Level FlightAware
09:13PM 36.5190 -108.6550 259° West 422 486 36,000  Level FlightAware
09:13PM 36.5060 -108.7320 258° West 422 486 36,000  Level FlightAware
09:14PM 36.4890 -108.8310 258° West 422 486 36,000  Level FlightAware
09:15PM 36.4770 -108.9040 258° West 422 486 36,000  Level FlightAware
09:15PM 36.4640 -108.9770 258° West 422 486 36,000  Level FlightAware
09:16PM 36.4440 -109.0980 258° West 422 486 36,000  Level FlightAware
09:17PM 36.4310 -109.1700 257° West 422 486 36,000  Level FlightAware
09:18PM 36.4150 -109.2670 258° West 422 486 36,000  Level FlightAware
09:18PM 36.4020 -109.3400 258° West 422 486 36,000  Level FlightAware
09:19PM 36.3860 -109.4370 258° West 422 486 36,000  Level FlightAware
09:20PM 36.3730 -109.5090 257° West 422 486 36,000  Level FlightAware
09:20PM 36.3610 -109.5800 258° West 422 486 36,000  Level FlightAware
09:21PM 36.3450 -109.6760 258° West 422 486 36,000  Level FlightAware
09:22PM 36.3320 -109.7510 258° West 422 486 36,000 2,340 Level FlightAware
09:22PM 36.4860 -109.9870 309° West 421 484 38,000 2,400 Climbing FlightAware
09:22PM 36.4900 -110.0740 273° West 422 486 38,000  Level FlightAware
09:23PM 36.4940 -110.1750 273° West 423 487 38,000  Level FlightAware
09:24PM 36.4980 -110.2780 273° West 424 488 38,000  Level FlightAware
09:25PM 36.5020 -110.3810 273° West 425 489 38,000  Level FlightAware
09:25PM 36.5070 -110.4780 274° West 428 493 38,000  Level FlightAware
09:26PM 36.5120 -110.5840 273° West 430 495 38,000  Level FlightAware
09:27PM 36.5170 -110.6890 273° West 431 496 38,000  Level FlightAware
09:28PM 36.5080 -110.8150 265° West 430 495 38,000  Level FlightAware
09:28PM 36.4810 -110.9070 250° West 426 490 38,000  Level FlightAware
09:29PM 36.4530 -110.9980 249° West 426 490 38,000  Level FlightAware
09:29PM 36.4260 -111.0850 249° West 426 490 38,000  Level FlightAware
09:30PM 36.3980 -111.1730 248° West 428 493 38,000  Level FlightAware
09:31PM 36.3690 -111.2680 249° West 430 495 38,000  Level FlightAware
09:32PM 36.3370 -111.3690 249° West 431 496 38,000  Level FlightAware
09:32PM 36.3050 -111.4700 249° West 431 496 38,000  Level FlightAware
09:33PM 36.2740 -111.5670 248° West 429 494 38,000  Level FlightAware
09:34PM 36.2450 -111.6580 248° West 429 494 38,000  Level FlightAware
09:34PM 36.2110 -111.7650 249° West 431 496 38,000  Level FlightAware
09:35PM 36.1840 -111.8490 248° West 432 497 38,000  Level FlightAware
09:36PM 36.1510 -111.9530 249° West 432 497 38,000  Level FlightAware
09:36PM 36.1200 -112.0480 248° West 433 498 38,000  Level FlightAware
09:37PM 36.0880 -112.1470 248° West 432 497 38,000  Level FlightAware
09:38PM 36.0600 -112.2330 248° West 433 498 38,000  Level FlightAware
09:38PM 36.0320 -112.3190 248° West 432 497 38,000  Level FlightAware
09:39PM 35.9980 -112.4240 248° West 433 498 38,000  Level FlightAware
09:40PM 35.9710 -112.5070 248° West 434 499 38,000  Level FlightAware
09:40PM 35.9410 -112.5980 248° West 436 502 38,000  Level FlightAware
09:41PM 35.9090 -112.6960 248° West 437 503 38,000  Level FlightAware
09:42PM 35.8780 -112.7870 247° West 437 503 38,000  Level FlightAware
09:43PM 35.8460 -112.8850 248° West 439 505 38,000  Level FlightAware
09:43PM 35.8120 -112.9860 247° West 437 503 38,000  Level FlightAware
09:44PM 35.7830 -113.0730 248° West 436 502 38,000  Level FlightAware
09:45PM 35.7490 -113.1770 248° West 434 499 38,000  Level FlightAware
09:45PM 35.7210 -113.2600 247° West 431 496 38,000  Level FlightAware
09:46PM 35.6910 -113.3490 247° West 430 495 38,000  Level FlightAware
09:47PM 35.6570 -113.4500 248° West 429 494 38,000  Level FlightAware
09:47PM 35.6260 -113.5400 247° West 429 494 38,000  Level FlightAware
09:48PM 35.5880 -113.6350 244° Southwest 428 493 38,000  Level FlightAware
09:49PM 35.5540 -113.7190 244° Southwest 428 493 38,000  Level FlightAware
09:49PM 35.5180 -113.8090 244° Southwest 429 494 38,000  Level FlightAware
09:50PM 35.4800 -113.9010 243° Southwest 430 495 38,000  Level FlightAware
09:51PM 35.4410 -113.9970 244° Southwest 430 495 38,000  Level FlightAware
09:52PM 35.4040 -114.0870 243° Southwest 430 495 38,000  Level FlightAware
09:52PM 35.3680 -114.1750 243° Southwest 429 494 38,000  Level FlightAware
09:53PM 35.3300 -114.2670 243° Southwest 430 495 38,000  Level FlightAware
09:54PM 35.2910 -114.3620 243° Southwest 432 497 38,000  Level FlightAware
09:54PM 35.2580 -114.4410 243° Southwest 433 498 38,000  Level FlightAware
09:55PM 35.2190 -114.5350 243° Southwest 434 499 38,000  Level FlightAware
09:56PM 35.1830 -114.6230 243° Southwest 436 502 38,000  Level FlightAware
09:56PM 35.1440 -114.7140 242° Southwest 437 503 38,000  Level FlightAware
09:57PM 35.1040 -114.8120 244° Southwest 438 504 38,000  Level FlightAware
09:58PM 35.0700 -114.8970 244° Southwest 439 505 38,000 -120 Level FlightAware
09:58PM 35.0650 -115.0020 267° West 446 513 37,900 -660 Descending FlightAware
09:59PM 35.0740 -115.1130 276° West 441 507 37,100 -720 Descending FlightAware
10:00PM 35.0840 -115.2340 276° West 441 507 36,800 -1,080 Descending FlightAware
10:01PM 35.0740 -115.3990 266° West 423 487 35,000 -1,740 Descending FlightAware
10:01PM 35.0560 -115.4270 232° Southwest 417 480 34,500 -1,920 Descending FlightAware
10:02PM 35.0140 -115.4590 212° Southwest 411 473 33,600 -1,980 Descending FlightAware
10:03PM 34.9380 -115.4810 193° South 400 460 32,300 -1,920 Descending FlightAware
10:03PM 34.8620 -115.5030 193° South 390 449 31,000 -1,800 Descending FlightAware
10:04PM 34.8000 -115.5200 193° South 383 441 30,000 -1,920 Descending FlightAware
10:04PM 34.7290 -115.5420 194° South 381 438 28,600 -1,800 Descending FlightAware
10:05PM 34.6980 -115.5850 229° Southwest 388 447 28,000 -600 Descending FlightAware
10:06PM 34.6730 -115.6640 249° West 414 476 28,000  Level FlightAware
10:06PM 34.6430 -115.7440 246° West 426 490 28,000  Level FlightAware
10:07PM 34.6030 -115.8450 244° Southwest 424 488 28,000  Level FlightAware
10:08PM 34.5710 -115.9280 245° Southwest 425 489 28,000  Level FlightAware
10:08PM 34.5460 -115.9920 245° Southwest 425 489 28,000  Level FlightAware
10:09PM 34.5190 -116.0580 244° Southwest 425 489 28,000  Level FlightAware
10:10PM 34.4840 -116.1460 244° Southwest 425 489 28,000  Level FlightAware
10:10PM 34.4580 -116.2110 244° Southwest 425 489 28,000 -2,100 Level FlightAware
10:11PM 34.4030 -116.3620 246° West 412 474 25,000 -2,520 Descending FlightAware
10:12PM 34.3710 -116.4440 245° Southwest 409 471 24,300 -720 Descending FlightAware
10:12PM 34.3350 -116.5360 245° Southwest 400 460 24,000 -240 Descending FlightAware
10:13PM 34.3060 -116.6090 244° Southwest 401 461 24,000  Level FlightAware
10:14PM 34.2730 -116.6930 245° Southwest 405 466 24,000 -180 Level FlightAware
10:14PM 34.2410 -116.7750 245° Southwest 413 475 23,800 -1,320 Descending FlightAware
10:15PM 34.2040 -116.8670 244° Southwest 404 465 22,200 -2,340 Descending FlightAware
10:16PM 34.1720 -116.9490 245° Southwest 400 460 20,600 -2,400 Descending FlightAware
10:16PM 34.1390 -117.0320 244° Southwest 394 453 19,000 -1,860 Descending FlightAware
10:17PM 34.1040 -117.1180 244° Southwest 372 428 18,000 -1,140 Descending FlightAware
10:18PM 34.0770 -117.1790 242° Southwest 364 419 17,500 -1,680 Descending FlightAware
10:19PM 34.0480 -117.2550 245° Southwest 368 423 15,900 -2,640 Descending FlightAware
10:19PM 34.0390 -117.3420 263° West 375 432 13,900 -2,280 Descending FlightAware
10:20PM 34.0320 -117.4230 264° West 355 409 12,900 -1,380 Descending FlightAware
10:20PM 34.0300 -117.4920 268° West 336 387 12,200 -1,380 Descending FlightAware
10:21PM 34.0340 -117.5630 274° West 325 374 11,200 -1,380 Descending FlightAware
10:22PM 34.0270 -117.6430 264° West 300 345 10,300 -1,080 Descending FlightAware
10:22PM 34.0240 -117.6800 264° West 288 331 10,000 -840 Descending FlightAware
10:23PM 34.0200 -117.7150 262° West 284 327 9,700 -1,080 Descending FlightAware
10:23PM 34.0150 -117.7700 264° West 305 351 9,000 -1,380 Descending FlightAware
10:24PM 34.0100 -117.8190 263° West 304 350 8,300 -1,500 Descending FlightAware
10:24PM 34.0060 -117.8640 264° West 300 345 7,600 -1,500 Descending FlightAware
10:24PM 34.0040 -117.8850 263° West 299 344 7,300 -1,200 Descending FlightAware
10:25PM 33.9990 -117.9310 263° West 295 339 6,800 -1,140 Descending FlightAware
10:25PM 33.9970 -117.9570 265° West 289 333 6,500 -1,140 Descending FlightAware
10:26PM 33.9920 -118.0010 262° West 284 327 6,000 -1,080 Descending FlightAware
10:26PM 33.9880 -118.0450 264° West 280 322 5,500 -1,080 Descending FlightAware
10:26PM 33.9860 -118.0640 263° West 278 320 5,300 -1,080 Descending FlightAware
10:27PM 33.9820 -118.1050 263° West 265 305 4,800 -1,020 Descending FlightAware
10:27PM 33.9790 -118.1340 263° West 255 293 4,500 -1,140 Descending FlightAware
10:27PM 33.9750 -118.1720 263° West 243 280 3,900 -1,320 Descending FlightAware
10:28PM 33.9720 -118.2070 264° West 231 266 3,300 -1,440 Descending FlightAware
10:28PM 33.9680 -118.2440 263° West 217 250 2,600 -1,260 Descending FlightAware
10:29PM 33.9630 -118.2910 263° West 192 221 1,800 -1,020 Descending FlightAware
10:29PM 33.9610 -118.3130 264° West 174 200 1,500 -840 Descending FlightAware
10:30PM 33.9580 -118.3390 262° West 150 173 1,100 -720 Descending FlightAware
10:31PM 33.9550 -118.3720 264° West 139 160 600 -720 Descending FlightAware
10:31PM 33.9530 -118.3900 262° West 144 166 300 -420 Descending FlightAware
10:32PM 33.9494 -118.4253 262° West 156 180 200 -180 Descending Los Angeles Center